sensor_id;sensor_type;location;lat;lon;timestamp;pressure;altitude;pressure_sealevel;temperature;humidity
55171;BME280;41060;47.510;8.680;2022-12-18T00:01:34;98067.16;;;-0.21;55.75
55171;BME280;41060;47.510;8.680;2022-12-18T00:04:06;98078.78;;;-0.37;56.50
55171;BME280;41060;47.510;8.680;2022-12-18T00:06:34;98069.78;;;-0.64;57.21
55171;BME280;41060;47.510;8.680;2022-12-18T00:09:02;98071.06;;;-0.86;58.20
55171;BME280;41060;47.510;8.680;2022-12-18T00:11:30;98078.53;;;-0.68;57.89
55171;BME280;41060;47.510;8.680;2022-12-18T00:13:59;98071.28;;;-0.52;57.49
55171;BME280;41060;47.510;8.680;2022-12-18T00:16:27;98081.47;;;-0.86;57.97
55171;BME280;41060;47.510;8.680;2022-12-18T00:18:56;98090.88;;;-0.79;58.15
55171;BME280;41060;47.510;8.680;2022-12-18T00:21:24;98084.50;;;-0.65;57.76
55171;BME280;41060;47.510;8.680;2022-12-18T00:23:51;98075.19;;;-0.73;57.63
55171;BME280;41060;47.510;8.680;2022-12-18T00:26:22;98079.22;;;-1.05;58.55
55171;BME280;41060;47.510;8.680;2022-12-18T00:28:51;98088.88;;;-1.10;58.54
55171;BME280;41060;47.510;8.680;2022-12-18T00:31:20;98087.78;;;-1.00;58.70
55171;BME280;41060;47.510;8.680;2022-12-18T00:33:47;98060.34;;;-1.16;58.80
55171;BME280;41060;47.510;8.680;2022-12-18T00:36:17;98091.94;;;-0.88;58.27
55171;BME280;41060;47.510;8.680;2022-12-18T00:38:44;98097.91;;;-0.84;57.91
55171;BME280;41060;47.510;8.680;2022-12-18T00:41:12;98090.13;;;-0.86;57.93
55171;BME280;41060;47.510;8.680;2022-12-18T00:44:00;98088.25;;;-0.78;58.05
55171;BME280;41060;47.510;8.680;2022-12-18T00:46:27;98080.41;;;-0.75;57.56
55171;BME280;41060;47.510;8.680;2022-12-18T00:48:53;98073.94;;;-0.56;57.12
55171;BME280;41060;47.510;8.680;2022-12-18T00:51:23;98072.34;;;-0.63;56.86
55171;BME280;41060;47.510;8.680;2022-12-18T00:53:49;98073.00;;;-0.51;57.13
55171;BME280;41060;47.510;8.680;2022-12-18T00:56:16;98090.50;;;-0.60;56.78
55171;BME280;41060;47.510;8.680;2022-12-18T00:58:43;98099.44;;;-0.73;57.35
55171;BME280;41060;47.510;8.680;2022-12-18T01:01:10;98104.53;;;-0.67;57.80
55171;BME280;41060;47.510;8.680;2022-12-18T01:03:38;98113.22;;;-0.68;57.63
55171;BME280;41060;47.510;8.680;2022-12-18T01:06:06;98111.59;;;-0.75;57.74
55171;BME280;41060;47.510;8.680;2022-12-18T01:08:35;98111.50;;;-0.70;57.59
55171;BME280;41060;47.510;8.680;2022-12-18T01:11:08;98103.66;;;-0.67;57.83
55171;BME280;41060;47.510;8.680;2022-12-18T01:13:35;98112.44;;;-0.73;57.95
55171;BME280;41060;47.510;8.680;2022-12-18T01:16:03;98106.59;;;-0.85;57.49
55171;BME280;41060;47.510;8.680;2022-12-18T01:18:29;98100.19;;;-1.14;58.46
55171;BME280;41060;47.510;8.680;2022-12-18T01:20:58;98111.25;;;-1.03;58.46
55171;BME280;41060;47.510;8.680;2022-12-18T01:23:24;98114.66;;;-0.99;58.34
55171;BME280;41060;47.510;8.680;2022-12-18T01:25:51;98118.81;;;-0.89;58.39
55171;BME280;41060;47.510;8.680;2022-12-18T01:28:18;98123.06;;;-0.85;58.26
55171;BME280;41060;47.510;8.680;2022-12-18T01:30:44;98124.63;;;-0.76;58.34
55171;BME280;41060;47.510;8.680;2022-12-18T01:33:11;98129.94;;;-0.81;58.15
55171;BME280;41060;47.510;8.680;2022-12-18T01:35:41;98129.84;;;-0.76;58.29
55171;BME280;41060;47.510;8.680;2022-12-18T01:38:09;98132.97;;;-0.58;57.83
55171;BME280;41060;47.510;8.680;2022-12-18T01:40:36;98131.84;;;-0.46;57.14
55171;BME280;41060;47.510;8.680;2022-12-18T01:43:03;98132.78;;;-0.50;56.75
55171;BME280;41060;47.510;8.680;2022-12-18T01:45:31;98134.06;;;-0.71;57.89
55171;BME280;41060;47.510;8.680;2022-12-18T01:47:59;98136.31;;;-0.51;57.28
55171;BME280;41060;47.510;8.680;2022-12-18T01:50:31;98143.03;;;-0.42;56.71
55171;BME280;41060;47.510;8.680;2022-12-18T01:53:02;98127.06;;;-0.67;57.21
55171;BME280;41060;47.510;8.680;2022-12-18T01:55:35;98146.56;;;-0.89;57.93
55171;BME280;41060;47.510;8.680;2022-12-18T01:58:03;98140.13;;;-0.70;57.44
55171;BME280;41060;47.510;8.680;2022-12-18T02:00:31;98123.16;;;-0.91;57.56
55171;BME280;41060;47.510;8.680;2022-12-18T02:02:57;98139.50;;;-0.83;57.71
55171;BME280;41060;47.510;8.680;2022-12-18T02:05:33;98133.56;;;-0.91;58.31
55171;BME280;41060;47.510;8.680;2022-12-18T02:08:09;98146.41;;;-0.80;58.62
55171;BME280;41060;47.510;8.680;2022-12-18T02:10:45;98147.25;;;-0.80;58.49
55171;BME280;41060;47.510;8.680;2022-12-18T02:13:20;98140.50;;;-0.91;58.83
55171;BME280;41060;47.510;8.680;2022-12-18T02:15:51;98094.50;;;-1.37;58.80
55171;BME280;41060;47.510;8.680;2022-12-18T02:18:24;98134.00;;;-1.15;59.53
55171;BME280;41060;47.510;8.680;2022-12-18T02:20:55;98142.22;;;-0.90;58.74
55171;BME280;41060;47.510;8.680;2022-12-18T02:23:44;98132.84;;;-0.99;59.07
55171;BME280;41060;47.510;8.680;2022-12-18T02:26:20;98138.66;;;-0.85;58.42
55171;BME280;41060;47.510;8.680;2022-12-18T02:28:52;98144.69;;;-0.83;58.17
55171;BME280;41060;47.510;8.680;2022-12-18T02:31:23;98145.22;;;-1.13;59.14
55171;BME280;41060;47.510;8.680;2022-12-18T02:33:53;98146.72;;;-1.00;58.93
55171;BME280;41060;47.510;8.680;2022-12-18T02:36:22;98146.56;;;-0.91;58.65
55171;BME280;41060;47.510;8.680;2022-12-18T02:38:50;98135.38;;;-0.95;58.88
55171;BME280;41060;47.510;8.680;2022-12-18T02:41:20;98135.22;;;-0.87;58.54
55171;BME280;41060;47.510;8.680;2022-12-18T02:43:53;98135.44;;;-0.99;58.59
55171;BME280;41060;47.510;8.680;2022-12-18T02:46:27;98142.38;;;-0.98;58.92
55171;BME280;41060;47.510;8.680;2022-12-18T02:49:01;98141.41;;;-0.92;59.15
55171;BME280;41060;47.510;8.680;2022-12-18T02:51:35;98144.84;;;-0.90;59.02
55171;BME280;41060;47.510;8.680;2022-12-18T02:54:09;98149.44;;;-1.06;59.03
55171;BME280;41060;47.510;8.680;2022-12-18T02:56:45;98157.94;;;-0.95;59.19
55171;BME280;41060;47.510;8.680;2022-12-18T02:59:16;98110.47;;;-1.09;59.08
55171;BME280;41060;47.510;8.680;2022-12-18T03:01:51;98159.31;;;-0.77;58.96
55171;BME280;41060;47.510;8.680;2022-12-18T03:04:25;98144.69;;;-0.81;58.86
55171;BME280;41060;47.510;8.680;2022-12-18T03:06:55;98101.41;;;-0.87;58.43
55171;BME280;41060;47.510;8.680;2022-12-18T03:09:28;98148.63;;;-0.61;58.04
55171;BME280;41060;47.510;8.680;2022-12-18T03:12:06;98136.53;;;-0.63;57.81
55171;BME280;41060;47.510;8.680;2022-12-18T03:14:52;98134.47;;;-0.94;58.48
55171;BME280;41060;47.510;8.680;2022-12-18T03:17:23;98163.66;;;-0.76;58.36
55171;BME280;41060;47.510;8.680;2022-12-18T03:19:52;98165.50;;;-0.83;58.29
55171;BME280;41060;47.510;8.680;2022-12-18T03:22:22;98168.28;;;-0.94;58.42
55171;BME280;41060;47.510;8.680;2022-12-18T03:24:51;98165.91;;;-1.06;58.98
55171;BME280;41060;47.510;8.680;2022-12-18T03:27:21;98146.25;;;-1.23;59.35
55171;BME280;41060;47.510;8.680;2022-12-18T03:29:52;98156.63;;;-1.22;59.72
55171;BME280;41060;47.510;8.680;2022-12-18T03:32:28;98159.16;;;-1.17;60.22
55171;BME280;41060;47.510;8.680;2022-12-18T03:34:59;98171.88;;;-1.01;59.81
55171;BME280;41060;47.510;8.680;2022-12-18T03:37:29;98167.66;;;-1.08;59.88
55171;BME280;41060;47.510;8.680;2022-12-18T03:39:55;98179.13;;;-1.19;59.88
55171;BME280;41060;47.510;8.680;2022-12-18T03:42:29;98177.31;;;-1.16;60.01
55171;BME280;41060;47.510;8.680;2022-12-18T03:45:02;98163.19;;;-1.01;59.54
55171;BME280;41060;47.510;8.680;2022-12-18T03:47:38;98171.44;;;-0.76;58.91
55171;BME280;41060;47.510;8.680;2022-12-18T03:50:11;98176.56;;;-0.72;59.12
55171;BME280;41060;47.510;8.680;2022-12-18T03:52:45;98180.97;;;-0.75;59.11
55171;BME280;41060;47.510;8.680;2022-12-18T03:55:14;98184.44;;;-0.76;59.10
55171;BME280;41060;47.510;8.680;2022-12-18T03:57:44;98181.06;;;-0.80;59.01
55171;BME280;41060;47.510;8.680;2022-12-18T04:00:13;98188.19;;;-0.91;59.13
55171;BME280;41060;47.510;8.680;2022-12-18T04:02:44;98182.25;;;-1.01;59.27
55171;BME280;41060;47.510;8.680;2022-12-18T04:05:12;98177.81;;;-0.94;59.58
55171;BME280;41060;47.510;8.680;2022-12-18T04:07:41;98173.56;;;-0.98;59.37
55171;BME280;41060;47.510;8.680;2022-12-18T04:10:09;98180.97;;;-0.75;59.07
55171;BME280;41060;47.510;8.680;2022-12-18T04:12:38;98181.06;;;-0.80;59.18
55171;BME280;41060;47.510;8.680;2022-12-18T04:15:08;98182.84;;;-0.83;59.16
55171;BME280;41060;47.510;8.680;2022-12-18T04:17:35;98185.63;;;-0.94;59.90
55171;BME280;41060;47.510;8.680;2022-12-18T04:20:02;98187.44;;;-0.99;59.72
55171;BME280;41060;47.510;8.680;2022-12-18T04:22:29;98193.25;;;-0.83;59.31
55171;BME280;41060;47.510;8.680;2022-12-18T04:24:56;98198.41;;;-0.80;59.04
55171;BME280;41060;47.510;8.680;2022-12-18T04:27:23;98195.59;;;-0.70;58.83
55171;BME280;41060;47.510;8.680;2022-12-18T04:29:49;98201.78;;;-0.77;59.42
55171;BME280;41060;47.510;8.680;2022-12-18T04:32:17;98210.44;;;-0.75;59.26
55171;BME280;41060;47.510;8.680;2022-12-18T04:34:46;98215.50;;;-0.67;59.25
55171;BME280;41060;47.510;8.680;2022-12-18T04:37:13;98217.19;;;-0.65;59.27
55171;BME280;41060;47.510;8.680;2022-12-18T04:39:39;98220.78;;;-0.72;59.42
55171;BME280;41060;47.510;8.680;2022-12-18T04:42:07;98218.22;;;-0.73;59.12
55171;BME280;41060;47.510;8.680;2022-12-18T04:44:33;98219.00;;;-0.68;59.26
55171;BME280;41060;47.510;8.680;2022-12-18T04:47:00;98224.19;;;-0.68;59.21
55171;BME280;41060;47.510;8.680;2022-12-18T04:49:28;98224.06;;;-0.61;58.99
55171;BME280;41060;47.510;8.680;2022-12-18T04:51:55;98230.13;;;-0.60;58.77
55171;BME280;41060;47.510;8.680;2022-12-18T04:54:21;98224.91;;;-0.60;58.99
55171;BME280;41060;47.510;8.680;2022-12-18T04:56:48;98213.69;;;-0.62;58.72
55171;BME280;41060;47.510;8.680;2022-12-18T04:59:15;98218.72;;;-0.53;58.64
55171;BME280;41060;47.510;8.680;2022-12-18T05:01:41;98211.63;;;-0.43;58.52
55171;BME280;41060;47.510;8.680;2022-12-18T05:04:09;98212.63;;;-0.50;58.09
55171;BME280;41060;47.510;8.680;2022-12-18T05:06:37;98205.75;;;-0.56;58.44
55171;BME280;41060;47.510;8.680;2022-12-18T05:09:03;98205.00;;;-0.61;58.66
55171;BME280;41060;47.510;8.680;2022-12-18T05:11:30;98212.09;;;-0.71;58.63
55171;BME280;41060;47.510;8.680;2022-12-18T05:13:57;98205.59;;;-0.47;58.43
55171;BME280;41060;47.510;8.680;2022-12-18T05:16:23;98206.56;;;-0.51;58.42
55171;BME280;41060;47.510;8.680;2022-12-18T05:18:50;98210.22;;;-0.64;58.72
55171;BME280;41060;47.510;8.680;2022-12-18T05:21:17;98200.75;;;-0.67;58.64
55171;BME280;41060;47.510;8.680;2022-12-18T05:23:45;98219.69;;;-0.59;58.71
55171;BME280;41060;47.510;8.680;2022-12-18T05:26:17;98220.50;;;-0.57;58.45
55171;BME280;41060;47.510;8.680;2022-12-18T05:28:44;98222.31;;;-0.60;59.06
55171;BME280;41060;47.510;8.680;2022-12-18T05:31:11;98225.91;;;-0.66;58.93
55171;BME280;41060;47.510;8.680;2022-12-18T05:33:38;98235.44;;;-0.66;59.27
55171;BME280;41060;47.510;8.680;2022-12-18T05:36:07;98243.06;;;-0.57;58.85
55171;BME280;41060;47.510;8.680;2022-12-18T05:38:35;98198.28;;;-0.74;58.87
55171;BME280;41060;47.510;8.680;2022-12-18T05:41:05;98236.22;;;-0.61;59.28
55171;BME280;41060;47.510;8.680;2022-12-18T05:43:36;98237.97;;;-0.63;59.28
55171;BME280;41060;47.510;8.680;2022-12-18T05:46:04;98236.81;;;-0.47;59.05
55171;BME280;41060;47.510;8.680;2022-12-18T05:48:31;98239.38;;;-0.44;58.57
55171;BME280;41060;47.510;8.680;2022-12-18T05:51:03;98243.88;;;-0.52;59.01
55171;BME280;41060;47.510;8.680;2022-12-18T05:53:31;98233.63;;;-0.63;59.08
55171;BME280;41060;47.510;8.680;2022-12-18T05:56:00;98213.09;;;-0.78;59.21
55171;BME280;41060;47.510;8.680;2022-12-18T05:58:29;98243.88;;;-0.52;59.14
55171;BME280;41060;47.510;8.680;2022-12-18T06:00:57;98241.16;;;-0.46;59.17
55171;BME280;41060;47.510;8.680;2022-12-18T06:03:31;98242.28;;;-0.61;59.37
55171;BME280;41060;47.510;8.680;2022-12-18T06:05:58;98236.03;;;-0.50;59.10
55171;BME280;41060;47.510;8.680;2022-12-18T06:08:25;98234.91;;;-0.37;58.70
55171;BME280;41060;47.510;8.680;2022-12-18T06:10:52;98237.84;;;-0.56;58.91
55171;BME280;41060;47.510;8.680;2022-12-18T06:13:20;98237.84;;;-0.57;59.34
55171;BME280;41060;47.510;8.680;2022-12-18T06:15:47;98230.19;;;-0.65;58.40
55171;BME280;41060;47.510;8.680;2022-12-18T06:18:14;98239.78;;;-0.67;59.03
55171;BME280;41060;47.510;8.680;2022-12-18T06:20:41;98244.75;;;-0.55;58.96
55171;BME280;41060;47.510;8.680;2022-12-18T06:23:08;98244.59;;;-0.44;58.33
55171;BME280;41060;47.510;8.680;2022-12-18T06:25:37;98246.38;;;-0.47;58.33
55171;BME280;41060;47.510;8.680;2022-12-18T06:28:04;98249.69;;;-0.38;58.41
55171;BME280;41060;47.510;8.680;2022-12-18T06:30:31;98249.59;;;-0.35;58.13
55171;BME280;41060;47.510;8.680;2022-12-18T06:32:59;98254.59;;;-0.21;58.10
55171;BME280;41060;47.510;8.680;2022-12-18T06:35:26;98259.97;;;-0.32;57.81
55171;BME280;41060;47.510;8.680;2022-12-18T06:37:53;98261.09;;;-0.46;58.42
55171;BME280;41060;47.510;8.680;2022-12-18T06:40:19;98256.59;;;-0.37;58.04
55171;BME280;41060;47.510;8.680;2022-12-18T06:42:47;98258.38;;;-0.39;58.38
55171;BME280;41060;47.510;8.680;2022-12-18T06:45:13;98254.06;;;-0.41;58.53
55171;BME280;41060;47.510;8.680;2022-12-18T06:47:40;98257.53;;;-0.42;58.96
55171;BME280;41060;47.510;8.680;2022-12-18T06:50:09;98237.16;;;-0.65;58.93
55171;BME280;41060;47.510;8.680;2022-12-18T06:52:35;98265.47;;;-0.50;59.31
55171;BME280;41060;47.510;8.680;2022-12-18T06:55:02;98276.72;;;-0.48;59.19
55171;BME280;41060;47.510;8.680;2022-12-18T06:57:29;98282.94;;;-0.57;59.37
55171;BME280;41060;47.510;8.680;2022-12-18T06:59:56;98293.09;;;-0.41;59.36
55171;BME280;41060;47.510;8.680;2022-12-18T07:02:23;98295.56;;;-0.34;58.80
55171;BME280;41060;47.510;8.680;2022-12-18T07:04:50;98295.56;;;-0.34;59.06
55171;BME280;41060;47.510;8.680;2022-12-18T07:07:18;98300.81;;;-0.35;58.62
55171;BME280;41060;47.510;8.680;2022-12-18T07:09:44;98302.44;;;-0.28;58.36
55171;BME280;41060;47.510;8.680;2022-12-18T07:12:11;98303.97;;;-0.18;57.84
55171;BME280;41060;47.510;8.680;2022-12-18T07:14:38;98303.75;;;-0.06;57.90
55171;BME280;41060;47.510;8.680;2022-12-18T07:17:07;98282.13;;;-0.09;57.22
55171;BME280;41060;47.510;8.680;2022-12-18T07:19:34;98310.44;;;0.09;56.93
55171;BME280;41060;47.510;8.680;2022-12-18T07:22:01;98305.25;;;0.07;56.93
55171;BME280;41060;47.510;8.680;2022-12-18T07:24:29;98302.78;;;-0.00;57.17
55171;BME280;41060;47.510;8.680;2022-12-18T07:26:57;98319.94;;;0.10;57.07
55171;BME280;41060;47.510;8.680;2022-12-18T07:29:24;98308.69;;;0.09;56.84
55171;BME280;41060;47.510;8.680;2022-12-18T07:31:50;98319.28;;;0.00;57.64
55171;BME280;41060;47.510;8.680;2022-12-18T07:34:18;98322.50;;;0.11;57.47
55171;BME280;41060;47.510;8.680;2022-12-18T07:36:44;98301.03;;;0.02;57.05
55171;BME280;41060;47.510;8.680;2022-12-18T07:39:11;98324.84;;;0.27;57.01
55171;BME280;41060;47.510;8.680;2022-12-18T07:41:42;98320.44;;;0.30;56.69
55171;BME280;41060;47.510;8.680;2022-12-18T07:44:11;98325.88;;;0.18;56.97
55171;BME280;41060;47.510;8.680;2022-12-18T07:46:38;98318.59;;;-0.11;57.65
55171;BME280;41060;47.510;8.680;2022-12-18T07:49:05;98321.31;;;-0.17;58.19
55171;BME280;41060;47.510;8.680;2022-12-18T07:51:32;98312.53;;;-0.11;57.98
55171;BME280;41060;47.510;8.680;2022-12-18T07:53:58;98324.63;;;-0.09;69.37
55171;BME280;41060;47.510;8.680;2022-12-18T07:56:26;98332.00;;;0.60;75.84
55171;BME280;41060;47.510;8.680;2022-12-18T07:58:54;98332.06;;;0.97;59.05
55171;BME280;41060;47.510;8.680;2022-12-18T08:01:20;98333.28;;;0.81;58.59
55171;BME280;41060;47.510;8.680;2022-12-18T08:03:48;98331.22;;;0.55;57.65
55171;BME280;41060;47.510;8.680;2022-12-18T08:06:14;98335.50;;;0.59;57.30
55171;BME280;41060;47.510;8.680;2022-12-18T08:08:41;98336.50;;;0.52;57.37
55171;BME280;41060;47.510;8.680;2022-12-18T08:11:08;98341.34;;;0.26;57.56
55171;BME280;41060;47.510;8.680;2022-12-18T08:13:34;98341.19;;;0.33;58.18
55171;BME280;41060;47.510;8.680;2022-12-18T08:16:04;98348.22;;;0.31;58.12
55171;BME280;41060;47.510;8.680;2022-12-18T08:18:34;98351.47;;;0.41;58.24
55171;BME280;41060;47.510;8.680;2022-12-18T08:21:07;98354.22;;;0.35;57.54
55171;BME280;41060;47.510;8.680;2022-12-18T08:23:38;98353.59;;;0.20;57.47
55171;BME280;41060;47.510;8.680;2022-12-18T08:26:04;98356.38;;;0.11;57.65
55171;BME280;41060;47.510;8.680;2022-12-18T08:28:31;98362.53;;;0.09;58.21
55171;BME280;41060;47.510;8.680;2022-12-18T08:30:59;98364.06;;;0.17;58.12
55171;BME280;41060;47.510;8.680;2022-12-18T08:33:27;98365.06;;;0.10;57.86
55171;BME280;41060;47.510;8.680;2022-12-18T08:35:53;98355.91;;;-0.10;59.05
55171;BME280;41060;47.510;8.680;2022-12-18T08:38:20;98353.28;;;-0.09;58.83
55171;BME280;41060;47.510;8.680;2022-12-18T08:40:48;98356.50;;;0.04;59.04
55171;BME280;41060;47.510;8.680;2022-12-18T08:43:14;98354.88;;;-0.00;58.98
55171;BME280;41060;47.510;8.680;2022-12-18T08:45:59;98319.59;;;-0.18;58.61
55171;BME280;41060;47.510;8.680;2022-12-18T08:48:27;98360.13;;;-0.03;58.33
55171;BME280;41060;47.510;8.680;2022-12-18T08:50:54;98358.31;;;0.02;58.44
55171;BME280;41060;47.510;8.680;2022-12-18T08:53:24;98362.31;;;0.19;58.34
55171;BME280;41060;47.510;8.680;2022-12-18T08:55:51;98367.25;;;0.33;58.18
55171;BME280;41060;47.510;8.680;2022-12-18T08:58:19;98354.31;;;0.30;57.79
55171;BME280;41060;47.510;8.680;2022-12-18T09:00:46;98348.06;;;-0.07;58.36
55171;BME280;41060;47.510;8.680;2022-12-18T09:03:13;98329.22;;;-0.23;58.63
55171;BME280;41060;47.510;8.680;2022-12-18T09:05:42;98337.81;;;-0.20;58.91
55171;BME280;41060;47.510;8.680;2022-12-18T09:08:09;98337.56;;;-0.04;58.41
55171;BME280;41060;47.510;8.680;2022-12-18T09:10:41;98337.22;;;0.15;58.29
55171;BME280;41060;47.510;8.680;2022-12-18T09:13:09;98284.81;;;-0.14;57.85
55171;BME280;41060;47.510;8.680;2022-12-18T09:15:40;98318.31;;;0.04;58.25
55171;BME280;41060;47.510;8.680;2022-12-18T09:18:07;98333.38;;;0.33;57.76
55171;BME280;41060;47.510;8.680;2022-12-18T09:20:34;98323.63;;;0.44;57.27
55171;BME280;41060;47.510;8.680;2022-12-18T09:23:03;98326.06;;;0.52;57.69
55171;BME280;41060;47.510;8.680;2022-12-18T09:25:30;98336.25;;;0.62;57.01
55171;BME280;41060;47.510;8.680;2022-12-18T09:27:59;98310.66;;;0.41;57.47
55171;BME280;41060;47.510;8.680;2022-12-18T09:30:25;98327.28;;;0.34;57.18
55171;BME280;41060;47.510;8.680;2022-12-18T09:32:53;98317.25;;;0.14;57.94
55171;BME280;41060;47.510;8.680;2022-12-18T09:35:20;98335.53;;;0.13;58.03
55171;BME280;41060;47.510;8.680;2022-12-18T09:37:49;98334.53;;;0.18;58.35
55171;BME280;41060;47.510;8.680;2022-12-18T09:40:20;98338.63;;;0.32;57.71
55171;BME280;41060;47.510;8.680;2022-12-18T09:42:52;98332.88;;;0.14;57.40
55171;BME280;41060;47.510;8.680;2022-12-18T09:45:20;98337.88;;;0.25;57.60
55171;BME280;41060;47.510;8.680;2022-12-18T09:47:49;98337.09;;;0.21;58.14
55171;BME280;41060;47.510;8.680;2022-12-18T09:50:24;98337.25;;;0.14;57.78
55171;BME280;41060;47.510;8.680;2022-12-18T09:52:56;98339.88;;;0.11;57.29
55171;BME280;41060;47.510;8.680;2022-12-18T09:55:34;98339.75;;;0.18;56.96
55171;BME280;41060;47.510;8.680;2022-12-18T09:58:06;98295.47;;;0.17;56.57
55171;BME280;41060;47.510;8.680;2022-12-18T10:00:40;98340.56;;;0.65;56.24
55171;BME280;41060;47.510;8.680;2022-12-18T10:03:11;98346.38;;;0.78;56.22
55171;BME280;41060;47.510;8.680;2022-12-18T10:05:44;98327.88;;;0.90;55.71
55171;BME280;41060;47.510;8.680;2022-12-18T10:08:20;98337.06;;;1.06;54.83
55171;BME280;41060;47.510;8.680;2022-12-18T10:10:52;98320.66;;;1.01;54.64
55171;BME280;41060;47.510;8.680;2022-12-18T10:13:23;98330.81;;;1.13;54.25
55171;BME280;41060;47.510;8.680;2022-12-18T10:16:03;98333.41;;;1.13;54.59
55171;BME280;41060;47.510;8.680;2022-12-18T10:18:58;98335.06;;;1.19;54.37
55171;BME280;41060;47.510;8.680;2022-12-18T10:21:34;98324.59;;;1.20;54.24
55171;BME280;41060;47.510;8.680;2022-12-18T10:24:14;98322.03;;;1.17;54.12
55171;BME280;41060;47.510;8.680;2022-12-18T10:26:52;98334.91;;;1.25;54.38
55171;BME280;41060;47.510;8.680;2022-12-18T10:29:19;98336.50;;;1.30;54.33
55171;BME280;41060;47.510;8.680;2022-12-18T10:31:46;98345.09;;;1.35;53.69
55171;BME280;41060;47.510;8.680;2022-12-18T10:34:13;98345.53;;;1.17;53.89
55171;BME280;41060;47.510;8.680;2022-12-18T10:36:40;98345.19;;;0.92;54.42
55171;BME280;41060;47.510;8.680;2022-12-18T10:39:19;98349.88;;;0.77;55.49
55171;BME280;41060;47.510;8.680;2022-12-18T10:41:50;98353.16;;;0.86;56.56
55171;BME280;41060;47.510;8.680;2022-12-18T10:44:20;98350.16;;;0.63;56.70
55171;BME280;41060;47.510;8.680;2022-12-18T10:46:49;98347.53;;;0.65;56.00
55171;BME280;41060;47.510;8.680;2022-12-18T10:49:23;98348.03;;;0.83;55.12
55171;BME280;41060;47.510;8.680;2022-12-18T10:51:51;98341.53;;;1.01;55.49
55171;BME280;41060;47.510;8.680;2022-12-18T10:54:21;98342.78;;;1.22;54.88
55171;BME280;41060;47.510;8.680;2022-12-18T10:56:49;98338.19;;;1.33;54.05
55171;BME280;41060;47.510;8.680;2022-12-18T10:59:18;98350.13;;;1.43;54.73
55171;BME280;41060;47.510;8.680;2022-12-18T11:01:48;98347.41;;;1.49;54.05
55171;BME280;41060;47.510;8.680;2022-12-18T11:04:18;98337.81;;;1.13;54.97
55171;BME280;41060;47.510;8.680;2022-12-18T11:06:54;98341.34;;;1.09;55.40
55171;BME280;41060;47.510;8.680;2022-12-18T11:09:23;98331.91;;;1.05;54.61
55171;BME280;41060;47.510;8.680;2022-12-18T11:11:52;98333.25;;;1.21;54.80
55171;BME280;41060;47.510;8.680;2022-12-18T11:14:22;98338.19;;;1.34;54.71
55171;BME280;41060;47.510;8.680;2022-12-18T11:16:51;98333.56;;;1.44;55.84
55171;BME280;41060;47.510;8.680;2022-12-18T11:19:31;98337.53;;;1.60;54.55
55171;BME280;41060;47.510;8.680;2022-12-18T11:22:00;98316.34;;;1.72;53.80
55171;BME280;41060;47.510;8.680;2022-12-18T11:24:30;98317.06;;;1.79;54.13
55171;BME280;41060;47.510;8.680;2022-12-18T11:26:58;98322.50;;;1.34;53.94
55171;BME280;41060;47.510;8.680;2022-12-18T11:29:35;98319.81;;;1.00;54.75
55171;BME280;41060;47.510;8.680;2022-12-18T11:32:22;98312.53;;;1.15;55.25
55171;BME280;41060;47.510;8.680;2022-12-18T11:34:55;98304.63;;;1.18;55.31
55171;BME280;41060;47.510;8.680;2022-12-18T11:37:24;98301.69;;;1.31;54.46
55171;BME280;41060;47.510;8.680;2022-12-18T11:39:54;98297.47;;;1.27;54.51
55171;BME280;41060;47.510;8.680;2022-12-18T11:42:27;98293.69;;;1.39;54.42
55171;BME280;41060;47.510;8.680;2022-12-18T11:44:58;98279.09;;;1.30;54.72
55171;BME280;41060;47.510;8.680;2022-12-18T11:47:30;98277.91;;;1.08;58.02
55171;BME280;41060;47.510;8.680;2022-12-18T11:50:02;98284.72;;;1.14;57.21
55171;BME280;41060;47.510;8.680;2022-12-18T11:52:34;98289.03;;;1.15;54.95
55171;BME280;41060;47.510;8.680;2022-12-18T11:55:10;98279.47;;;1.15;55.44
55171;BME280;41060;47.510;8.680;2022-12-18T11:57:45;98270.38;;;1.31;55.91
55171;BME280;41060;47.510;8.680;2022-12-18T12:00:20;98275.44;;;1.37;55.74
55171;BME280;41060;47.510;8.680;2022-12-18T12:05:52;98291.56;;;1.55;54.69
55171;BME280;41060;47.510;8.680;2022-12-18T12:08:30;98285.22;;;1.65;53.76
55171;BME280;41060;47.510;8.680;2022-12-18T12:11:06;98295.44;;;1.72;54.26
55171;BME280;41060;47.510;8.680;2022-12-18T12:13:45;98293.50;;;1.80;54.31
55171;BME280;41060;47.510;8.680;2022-12-18T12:16:21;98292.53;;;1.85;53.72
55171;BME280;41060;47.510;8.680;2022-12-18T12:19:05;98285.34;;;1.59;54.18
55171;BME280;41060;47.510;8.680;2022-12-18T12:21:39;98285.41;;;1.57;63.49
55171;BME280;41060;47.510;8.680;2022-12-18T12:24:18;98280.38;;;1.84;56.22
55171;BME280;41060;47.510;8.680;2022-12-18T12:26:52;98277.13;;;1.74;55.76
55171;BME280;41060;47.510;8.680;2022-12-18T12:29:34;98275.97;;;1.86;55.26
55171;BME280;41060;47.510;8.680;2022-12-18T12:32:16;98271.41;;;1.94;55.02
55171;BME280;41060;47.510;8.680;2022-12-18T12:34:57;98265.00;;;2.04;54.22
55171;BME280;41060;47.510;8.680;2022-12-18T12:37:33;98262.22;;;2.10;53.79
55171;BME280;41060;47.510;8.680;2022-12-18T12:40:05;98260.38;;;2.15;53.21
55171;BME280;41060;47.510;8.680;2022-12-18T12:42:37;98255.31;;;2.09;53.01
55171;BME280;41060;47.510;8.680;2022-12-18T12:45:30;98265.50;;;1.87;52.95
55171;BME280;41060;47.510;8.680;2022-12-18T12:48:07;98271.31;;;1.29;54.16
55171;BME280;41060;47.510;8.680;2022-12-18T12:50:40;98261.63;;;0.60;56.12
55171;BME280;41060;47.510;8.680;2022-12-18T12:53:21;98250.94;;;0.31;57.42
55171;BME280;41060;47.510;8.680;2022-12-18T12:55:49;98257.91;;;0.70;56.58
55171;BME280;41060;47.510;8.680;2022-12-18T12:58:24;98248.69;;;0.92;55.97
55171;BME280;41060;47.510;8.680;2022-12-18T13:00:58;98237.59;;;0.84;56.00
55171;BME280;41060;47.510;8.680;2022-12-18T13:03:35;98250.59;;;0.86;56.60
55171;BME280;41060;47.510;8.680;2022-12-18T13:06:08;98249.66;;;0.90;56.22
55171;BME280;41060;47.510;8.680;2022-12-18T13:08:53;98242.06;;;1.16;55.82
55171;BME280;41060;47.510;8.680;2022-12-18T13:11:30;98257.75;;;1.13;56.12
55171;BME280;41060;47.510;8.680;2022-12-18T13:14:37;98263.41;;;0.96;56.23
55171;BME280;41060;47.510;8.680;2022-12-18T13:17:21;98266.09;;;0.92;56.80
55171;BME280;41060;47.510;8.680;2022-12-18T13:20:10;98261.03;;;0.86;55.88
55171;BME280;41060;47.510;8.680;2022-12-18T13:22:40;98240.78;;;0.97;56.26
55171;BME280;41060;47.510;8.680;2022-12-18T13:25:32;98258.13;;;1.35;55.61